Time;durP1;ratioP1;P1;durP2;ratioP2;P2;SDS_P1;SDS_P2;PMS_P1;PMS_P2;Temp;Humidity;BMP_temperature;BMP_pressure;BME280_temperature;BME280_humidity;BME280_pressure;Samples;Min_cycle;Max_cycle;Signal;HPM_P1;HPM_P2
2023/04/01 00:01:35;;;;;;;20.02;9.52;;;;;;;12.18;100.00;97855.44;5097130;28;20131;-92
2023/04/01 00:04:03;;;;;;;16.17;9.07;;;;;;;12.03;100.00;97828.59;5095933;28;20122;-94
2023/04/01 00:06:29;;;;;;;18.42;9.23;;;;;;;12.18;100.00;97858.13;5095323;28;20399;-91
2023/04/01 00:08:55;;;;;;;20.83;9.32;;;;;;;12.15;100.00;97855.59;5096047;27;20067;-92
2023/04/01 00:11:21;;;;;;;21.23;8.70;;;;;;;12.02;100.00;97837.53;5096741;27;20530;-91
2023/04/01 00:13:47;;;;;;;26.98;10.20;;;;;;;12.16;100.00;97857.31;5096973;27;20058;-92
2023/04/01 00:16:13;;;;;;;20.33;9.02;;;;;;;12.12;100.00;97857.47;5092534;28;20077;-93
2023/04/01 00:18:39;;;;;;;22.42;9.38;;;;;;;12.06;100.00;97851.59;5097541;27;20067;-91
2023/04/01 00:21:07;;;;;;;18.27;8.93;;;;;;;11.99;100.00;97834.13;5095269;28;20079;-91
2023/04/01 00:23:33;;;;;;;19.67;9.38;;;;;;;11.91;100.00;97837.19;5095372;28;20097;-92
2023/04/01 00:25:59;;;;;;;20.02;9.25;;;;;;;12.03;100.00;97852.56;5090004;28;20051;-92
2023/04/01 00:28:25;;;;;;;23.98;9.65;;;;;;;11.98;100.00;97843.09;5074414;28;20085;-92
2023/04/01 00:30:51;;;;;;;23.17;9.02;;;;;;;11.95;100.00;97824.56;5073823;28;20050;-92
2023/04/01 00:33:17;;;;;;;19.65;8.65;;;;;;;12.06;100.00;97835.59;5068820;28;20127;-92
2023/04/01 00:35:44;;;;;;;21.83;9.23;;;;;;;12.03;100.00;97836.59;5070666;28;20040;-91
2023/04/01 00:38:12;;;;;;;19.48;8.38;;;;;;;12.08;100.00;97844.38;5069321;28;20042;-92
2023/04/01 00:40:40;;;;;;;19.40;8.27;;;;;;;11.94;100.00;97826.38;5060997;28;20052;-90
2023/04/01 00:43:12;;;;;;;18.17;7.70;;;;;;;12.03;100.00;97846.38;5063535;28;20032;-91
2023/04/01 00:45:40;;;;;;;18.17;8.50;;;;;;;12.09;100.00;97860.28;5066835;28;20038;-91
2023/04/01 00:48:10;;;;;;;13.87;7.80;;;;;;;12.03;100.00;97841.06;5065847;28;20033;-90
2023/04/01 00:50:39;;;;;;;19.77;8.70;;;;;;;11.95;100.00;97827.22;5061253;28;20292;-89
2023/04/01 00:53:07;;;;;;;15.90;7.95;;;;;;;12.04;100.00;97842.78;5061408;28;20032;-92
2023/04/01 00:55:38;;;;;;;16.20;7.55;;;;;;;11.99;100.00;97823.47;5073445;28;20036;-93
2023/04/01 00:58:09;;;;;;;18.73;7.85;;;;;;;12.09;100.00;97830.09;5078339;28;20899;-92
2023/04/01 01:00:37;;;;;;;20.20;8.77;;;;;;;11.99;100.00;97808.38;5077410;28;20489;-91
2023/04/01 01:03:03;;;;;;;17.50;8.35;;;;;;;11.97;100.00;97828.91;5078103;28;20040;-91
2023/04/01 01:05:38;;;;;;;20.92;8.93;;;;;;;12.02;100.00;97824.22;5075639;28;20495;-91
2023/04/01 01:08:15;;;;;;;18.45;8.80;;;;;;;11.88;100.00;97808.00;5063728;28;20447;-91
2023/04/01 01:10:47;;;;;;;19.05;8.80;;;;;;;11.96;100.00;97819.16;5060954;28;20477;-92
2023/04/01 01:13:21;;;;;;;19.23;8.20;;;;;;;11.89;100.00;97828.41;5064291;28;20105;-91
2023/04/01 01:15:50;;;;;;;20.77;8.40;;;;;;;11.82;100.00;97824.25;5060015;28;20075;-90
2023/04/01 01:18:22;;;;;;;16.63;8.30;;;;;;;11.74;100.00;97807.78;5065857;28;20044;-91
2023/04/01 01:21:19;;;;;;;17.92;8.75;;;;;;;11.87;100.00;97819.59;5063038;28;20050;-92
2023/04/01 01:24:33;;;;;;;15.65;8.07;;;;;;;11.74;100.00;97821.09;5071927;28;20404;-92
2023/04/01 01:27:04;;;;;;;18.90;8.15;;;;;;;11.69;100.00;97816.84;5033562;28;20183;-91
2023/04/01 01:29:48;;;;;;;21.20;8.65;;;;;;;11.63;100.00;97822.47;5037939;28;20056;-89
2023/04/01 01:32:28;;;;;;;19.67;8.27;;;;;;;11.78;100.00;97820.88;5036702;28;20053;-92
2023/04/01 01:34:59;;;;;;;20.40;8.15;;;;;;;11.69;100.00;97798.22;5036010;28;20053;-90
2023/04/01 01:37:28;;;;;;;16.67;8.63;;;;;;;11.74;100.00;97802.47;5054006;28;20049;-92
2023/04/01 01:40:00;;;;;;;17.05;8.25;;;;;;;11.76;100.00;97797.94;5037460;28;20064;-91
2023/04/01 01:42:28;;;;;;;22.15;8.73;;;;;;;11.85;100.00;97810.81;5037659;28;20063;-92
2023/04/01 01:44:59;;;;;;;16.75;8.20;;;;;;;11.75;100.00;97799.69;5036430;28;20041;-91
2023/04/01 01:47:25;;;;;;;23.23;8.57;;;;;;;11.78;100.00;97806.72;5036124;28;20041;-91
2023/04/01 01:49:53;;;;;;;14.75;7.90;;;;;;;11.60;100.00;97787.13;5035895;28;20075;-90
2023/04/01 01:52:19;;;;;;;15.68;8.10;;;;;;;11.62;100.00;97799.41;5037902;28;20091;-92
2023/04/01 01:54:49;;;;;;;20.40;9.63;;;;;;;11.60;100.00;97803.97;5036970;28;20085;-92
2023/04/01 01:57:19;;;;;;;19.20;7.65;;;;;;;11.54;100.00;97793.59;5036497;28;20041;-93
2023/04/01 01:59:47;;;;;;;19.13;8.48;;;;;;;11.50;100.00;97797.34;5037755;28;20061;-90
2023/04/01 02:02:14;;;;;;;17.10;8.50;;;;;;;11.41;100.00;97780.00;5087603;28;20044;-91
2023/04/01 02:04:44;;;;;;;17.40;8.75;;;;;;;11.54;100.00;97804.25;5089081;28;20089;-90
2023/04/01 02:07:14;;;;;;;17.40;8.43;;;;;;;11.49;100.00;97800.91;5093735;28;20458;-90
2023/04/01 02:09:40;;;;;;;22.23;8.40;;;;;;;11.39;100.00;97783.66;5085827;28;20485;-91
2023/04/01 02:12:10;;;;;;;18.17;8.75;;;;;;;11.33;100.00;97776.81;5080549;28;20067;-92
2023/04/01 02:14:43;;;;;;;21.40;9.52;;;;;;;11.38;100.00;97784.59;5088588;28;20864;-91
2023/04/01 02:17:12;;;;;;;21.92;8.52;;;;;;;11.39;100.00;97792.50;5083367;28;20488;-92
2023/04/01 02:19:41;;;;;;;14.68;7.55;;;;;;;11.32;100.00;97793.75;5086339;28;20134;-92
2023/04/01 02:22:10;;;;;;;14.57;7.82;;;;;;;11.26;100.00;97789.53;5094701;28;20039;-93
2023/04/01 02:24:38;;;;;;;20.33;8.90;;;;;;;11.18;100.00;97778.38;5096379;28;20043;-90
2023/04/01 02:27:04;;;;;;;19.20;8.68;;;;;;;11.29;100.00;97794.72;5091839;28;20127;-92
2023/04/01 02:29:32;;;;;;;16.75;8.90;;;;;;;11.17;100.00;97773.13;5093653;28;20047;-90
2023/04/01 02:31:58;;;;;;;17.83;8.00;;;;;;;11.12;100.00;97761.84;5092616;28;20027;-90
2023/04/01 02:34:25;;;;;;;15.77;8.23;;;;;;;11.07;100.00;97765.56;5097048;27;20092;-92
2023/04/01 02:36:51;;;;;;;20.15;7.93;;;;;;;11.06;100.00;97765.63;5096363;28;20058;-91
2023/04/01 02:39:18;;;;;;;20.92;7.70;;;;;;;11.13;100.00;97785.72;5094097;27;20048;-92
2023/04/01 02:41:45;;;;;;;17.23;7.32;;;;;;;11.00;100.00;97781.88;5094228;27;20480;-92
2023/04/01 02:44:13;;;;;;;14.85;7.68;;;;;;;11.03;100.00;97787.06;5101035;28;20106;-91
2023/04/01 02:46:40;;;;;;;16.92;7.18;;;;;;;10.92;100.00;97774.22;5097387;28;20043;-92
2023/04/01 02:49:06;;;;;;;15.63;7.53;;;;;;;10.72;100.00;97760.97;5095195;28;20036;-90
2023/04/01 02:51:32;;;;;;;16.02;7.10;;;;;;;10.81;100.00;97787.16;5089444;27;20066;-90
2023/04/01 02:53:58;;;;;;;15.93;6.60;;;;;;;10.82;100.00;97799.50;5098225;28;20051;-90
2023/04/01 02:56:25;;;;;;;16.95;7.30;;;;;;;10.63;100.00;97767.53;5097801;28;20086;-92
2023/04/01 02:58:51;;;;;;;16.52;7.25;;;;;;;10.65;100.00;97784.31;5096871;28;20040;-94
2023/04/01 03:01:18;;;;;;;14.18;6.25;;;;;;;10.68;100.00;97800.09;5093534;28;20076;-93
2023/04/01 03:03:45;;;;;;;15.65;6.35;;;;;;;10.58;100.00;97782.81;5094234;28;20100;-93
2023/04/01 03:06:13;;;;;;;14.27;6.40;;;;;;;10.60;100.00;97804.88;5095523;28;20044;-91
2023/04/01 03:08:39;;;;;;;11.35;5.30;;;;;;;10.49;100.00;97797.34;5098910;27;20428;-90
2023/04/01 03:11:05;;;;;;;14.18;5.85;;;;;;;10.50;100.00;97812.41;5099250;27;20040;-93
2023/04/01 03:13:31;;;;;;;14.13;6.03;;;;;;;10.34;98.51;97795.34;5098153;27;20046;-90
2023/04/01 03:15:57;;;;;;;15.75;6.13;;;;;;;10.30;99.13;97809.69;5096114;27;20039;-90
2023/04/01 03:18:23;;;;;;;12.73;5.28;;;;;;;10.25;99.31;97804.53;5094811;28;20027;-91
2023/04/01 03:20:50;;;;;;;13.55;5.50;;;;;;;10.26;99.02;97827.53;5093259;27;20043;-91
2023/04/01 03:23:19;;;;;;;9.73;4.93;;;;;;;10.27;99.09;97824.78;5096735;27;20484;-92
2023/04/01 03:25:45;;;;;;;20.48;6.00;;;;;;;10.10;99.26;97821.97;5091125;28;20076;-91
2023/04/01 03:28:12;;;;;;;12.02;5.70;;;;;;;10.18;98.96;97826.97;5075598;28;20542;-92
2023/04/01 03:30:38;;;;;;;12.40;5.20;;;;;;;10.11;99.08;97844.97;5072320;28;20064;-91
2023/04/01 03:33:03;;;;;;;13.93;5.35;;;;;;;9.99;99.57;97827.69;5072897;28;20071;-91
2023/04/01 03:35:29;;;;;;;13.48;5.25;;;;;;;9.80;100.00;97824.03;5075351;28;20089;-91
2023/04/01 03:37:57;;;;;;;12.57;5.10;;;;;;;9.76;100.00;97811.81;5074670;28;20044;-90
2023/04/01 03:40:23;;;;;;;13.35;5.40;;;;;;;9.81;100.00;97821.34;5075856;28;20052;-91
2023/04/01 03:42:49;;;;;;;16.67;5.85;;;;;;;9.72;100.00;97815.53;5074949;28;20079;-89
2023/04/01 03:45:16;;;;;;;12.15;5.65;;;;;;;9.65;100.00;97806.94;5073733;28;20064;-92
2023/04/01 03:47:41;;;;;;;13.10;6.10;;;;;;;9.69;100.00;97810.31;5074914;28;20040;-92
2023/04/01 03:50:08;;;;;;;12.23;6.15;;;;;;;9.79;100.00;97824.97;5073994;28;20043;-91
2023/04/01 03:52:34;;;;;;;17.98;6.93;;;;;;;9.83;100.00;97822.13;5074853;28;20040;-93
2023/04/01 03:55:02;;;;;;;16.63;6.75;;;;;;;9.78;100.00;97809.97;5075295;28;20036;-89
2023/04/01 03:57:30;;;;;;;11.90;6.47;;;;;;;9.72;100.00;97796.94;5074778;28;20405;-91
2023/04/01 03:59:56;;;;;;;16.42;7.10;;;;;;;9.82;100.00;97814.22;5075042;28;20048;-92
2023/04/01 04:02:22;;;;;;;16.45;6.68;;;;;;;9.91;100.00;97824.50;5072759;28;20039;-90
2023/04/01 04:04:48;;;;;;;17.05;7.38;;;;;;;9.90;100.00;97795.34;5075436;28;20107;-91
2023/04/01 04:07:14;;;;;;;13.40;7.05;;;;;;;9.96;100.00;97814.56;5075003;28;20044;-89
2023/04/01 04:09:39;;;;;;;19.60;7.22;;;;;;;9.91;100.00;97808.56;5075728;28;20044;-90
2023/04/01 04:12:07;;;;;;;16.63;6.57;;;;;;;9.91;100.00;97807.69;5075124;28;20040;-92
2023/04/01 04:14:33;;;;;;;14.35;5.75;;;;;;;10.04;100.00;97817.78;5074052;28;20079;-91
2023/04/01 04:16:59;;;;;;;9.18;4.82;;;;;;;10.10;97.07;97781.25;5073897;28;20069;-92
2023/04/01 04:19:25;;;;;;;14.73;4.95;;;;;;;10.32;93.76;97784.78;5076479;28;20063;-93
2023/04/01 04:21:50;;;;;;;14.38;5.00;;;;;;;10.48;91.26;97793.00;5073825;28;20114;-91
2023/04/01 04:24:16;;;;;;;16.33;4.28;;;;;;;10.33;90.39;97773.22;5074525;28;20056;-92
2023/04/01 04:26:42;;;;;;;12.10;4.88;;;;;;;10.37;90.55;97793.44;5089979;28;20055;-89
2023/04/01 04:29:11;;;;;;;9.50;4.15;;;;;;;10.32;90.88;97798.06;5096334;28;20046;-92
2023/04/01 04:31:36;;;;;;;10.52;4.05;;;;;;;10.21;92.06;97798.50;5093605;28;20043;-90
2023/04/01 04:34:02;;;;;;;9.93;3.90;;;;;;;10.07;92.04;97783.09;5095136;28;20096;-90
2023/04/01 04:36:28;;;;;;;11.93;4.22;;;;;;;10.15;91.52;97803.16;5093770;28;20503;-91
2023/04/01 04:38:54;;;;;;;10.07;3.92;;;;;;;9.98;91.45;97772.00;5096734;28;20065;-91
2023/04/01 04:41:21;;;;;;;15.45;5.05;;;;;;;10.01;91.36;97786.00;5096357;28;20044;-93
2023/04/01 04:43:53;;;;;;;14.75;4.60;;;;;;;10.01;90.91;97788.66;5096257;28;20036;-90
2023/04/01 04:46:21;;;;;;;16.42;4.03;;;;;;;9.94;91.77;97800.47;5093471;28;20044;-90
2023/04/01 04:48:47;;;;;;;17.08;4.25;;;;;;;9.88;93.06;97811.34;5095251;28;20074;-92
2023/04/01 04:51:15;;;;;;;14.88;5.78;;;;;;;9.69;94.20;97807.66;5095699;28;20036;-92
2023/04/01 04:53:41;;;;;;;14.90;5.72;;;;;;;9.53;95.98;97796.78;5094940;28;20053;-93
2023/04/01 04:56:07;;;;;;;11.43;5.60;;;;;;;9.45;97.48;97800.63;5094999;28;20123;-91
2023/04/01 04:58:33;;;;;;;13.13;4.65;;;;;;;9.38;99.25;97812.34;5095063;28;20048;-90
2023/04/01 05:00:59;;;;;;;14.75;5.70;;;;;;;9.38;99.35;97822.13;5094235;28;20039;-92
2023/04/01 05:03:27;;;;;;;13.02;5.60;;;;;;;9.19;99.60;97801.56;5094878;28;20050;-94
2023/04/01 05:05:53;;;;;;;14.40;5.43;;;;;;;9.09;99.88;97797.53;5094095;28;20044;-93
2023/04/01 05:08:20;;;;;;;13.73;6.30;;;;;;;8.95;99.14;97791.88;5094737;28;20046;-93
2023/04/01 05:10:45;;;;;;;14.48;7.13;;;;;;;9.06;99.99;97813.53;5094754;28;20085;-92
2023/04/01 05:13:11;;;;;;;13.35;6.20;;;;;;;8.98;100.00;97819.16;5094072;28;20035;-91
2023/04/01 05:15:37;;;;;;;16.85;6.55;;;;;;;8.95;100.00;97819.25;5092599;28;20047;-91
2023/04/01 05:18:03;;;;;;;14.90;5.55;;;;;;;8.83;100.00;97815.25;5095640;28;20058;-92
2023/04/01 05:20:31;;;;;;;12.35;5.50;;;;;;;8.81;100.00;97814.44;5093078;28;20036;-92
2023/04/01 05:22:56;;;;;;;14.07;5.85;;;;;;;8.71;100.00;97805.06;5096409;28;20460;-89
2023/04/01 05:25:22;;;;;;;14.05;5.82;;;;;;;8.68;100.00;97812.28;5094216;28;20071;-92
2023/04/01 05:27:48;;;;;;;13.15;5.05;;;;;;;8.92;100.00;97831.75;5095856;28;20427;-90
2023/04/01 05:30:14;;;;;;;15.95;5.00;;;;;;;8.94;100.00;97824.63;5107842;28;20071;-93
2023/04/01 05:32:40;;;;;;;14.02;5.30;;;;;;;9.04;98.52;97803.03;5100194;28;20044;-91
2023/04/01 05:35:07;;;;;;;13.02;4.85;;;;;;;9.14;97.65;97830.06;5098820;28;20512;-91
2023/04/01 05:37:35;;;;;;;13.13;4.80;;;;;;;9.12;97.99;97837.19;5097048;28;20385;-90
2023/04/01 05:40:03;;;;;;;16.73;4.70;;;;;;;9.05;98.71;97844.50;5095959;28;20060;-92
2023/04/01 05:42:29;;;;;;;11.32;4.35;;;;;;;9.07;99.62;97849.78;5103598;28;20115;-92
2023/04/01 05:44:55;;;;;;;12.40;4.30;;;;;;;8.96;99.50;97834.25;5108579;28;20040;-91
2023/04/01 05:47:21;;;;;;;12.43;4.50;;;;;;;9.04;99.71;97852.50;5106807;28;20044;-90
2023/04/01 05:49:47;;;;;;;14.00;4.28;;;;;;;8.95;100.00;97848.41;5104149;28;20054;-92
2023/04/01 05:52:13;;;;;;;18.23;5.70;;;;;;;8.97;100.00;97845.72;5099894;28;20392;-94
2023/04/01 05:54:40;;;;;;;15.88;6.00;;;;;;;9.10;100.00;97848.78;5100635;28;20113;-93
2023/04/01 05:57:06;;;;;;;16.70;6.43;;;;;;;9.22;100.00;97862.47;5097654;28;20054;-91
2023/04/01 05:59:32;;;;;;;18.02;7.03;;;;;;;9.52;100.00;97882.63;5097111;28;20044;-91
2023/04/01 06:01:58;;;;;;;17.92;6.88;;;;;;;9.71;100.00;97886.31;5097337;28;20032;-92
2023/04/01 06:04:25;;;;;;;14.75;6.03;;;;;;;9.97;100.00;97895.09;5098241;28;20107;-90
2023/04/01 06:06:51;;;;;;;13.68;5.70;;;;;;;10.12;100.00;97890.97;5098631;28;20044;-91
2023/04/01 06:09:19;;;;;;;10.95;4.60;;;;;;;10.26;97.33;97883.34;5097558;28;20131;-91
2023/04/01 06:12:06;;;;;;;14.23;4.85;;;;;;;10.42;95.77;97879.16;5097058;28;20054;-92
2023/04/01 06:14:42;;;;;;;13.02;4.70;;;;;;;10.79;91.21;97901.56;5103350;28;20048;-91
2023/04/01 06:17:24;;;;;;;14.80;4.47;;;;;;;10.87;92.29;97888.81;5095685;28;20048;-92
2023/04/01 06:19:57;;;;;;;11.80;4.18;;;;;;;10.93;92.06;97885.03;5096988;28;20050;-92
2023/04/01 06:22:55;;;;;;;15.30;5.30;;;;;;;11.08;92.08;97900.34;5097725;28;20040;-92
2023/04/01 06:25:36;;;;;;;14.07;5.10;;;;;;;11.14;92.91;97906.31;5094307;28;20120;-93
2023/04/01 06:28:31;;;;;;;13.77;5.22;;;;;;;11.08;94.67;97913.63;5095678;28;20043;-92
2023/04/01 06:31:03;;;;;;;17.02;6.22;;;;;;;11.13;97.16;97910.78;5092050;28;20043;-92
2023/04/01 06:33:49;;;;;;;17.48;6.97;;;;;;;11.19;99.77;97909.63;5096987;28;20058;-91
2023/04/01 06:36:47;;;;;;;19.45;10.00;;;;;;;11.25;100.00;97910.22;5096649;28;20384;-92
2023/04/01 06:39:30;;;;;;;14.82;8.93;;;;;;;11.40;100.00;97931.78;5095681;28;20039;-93
2023/04/01 06:42:24;;;;;;;17.00;9.30;;;;;;;11.52;100.00;97924.13;5096832;28;20027;-92
2023/04/01 06:45:06;;;;;;;18.58;8.27;;;;;;;11.64;100.00;97911.19;5096083;28;20039;-91
2023/04/01 06:47:53;;;;;;;20.75;8.45;;;;;;;11.95;100.00;97929.34;5096041;28;20031;-92
2023/04/01 06:50:24;;;;;;;19.17;9.55;;;;;;;12.07;100.00;97923.44;5097267;28;20505;-91
2023/04/01 06:52:59;;;;;;;18.27;9.35;;;;;;;12.09;100.00;97905.56;5096130;28;20516;-93
2023/04/01 06:55:30;;;;;;;15.65;7.95;;;;;;;12.28;99.33;97926.03;5097468;28;20040;-94
2023/04/01 06:57:59;;;;;;;15.20;8.65;;;;;;;12.32;98.95;97917.81;5096083;28;20032;-93
2023/04/01 07:00:31;;;;;;;14.85;7.63;;;;;;;12.52;97.71;97935.53;5098469;28;20436;-92
2023/04/01 07:03:06;;;;;;;18.80;8.68;;;;;;;12.71;97.17;97932.84;5097783;28;20043;-93
2023/04/01 07:05:35;;;;;;;18.30;7.90;;;;;;;12.84;95.85;97925.09;5096895;28;20039;-92
2023/04/01 07:08:02;;;;;;;;;;;;;;;13.05;94.10;97948.97;5097486;28;20035;-92
2023/04/01 07:10:36;;;;;;;18.38;7.68;;;;;;;13.02;94.92;97943.78;5097578;28;19972;-93
2023/04/01 07:13:09;;;;;;;17.17;7.97;;;;;;;13.03;91.35;97937.50;5096927;28;20078;-93
2023/04/01 07:15:41;;;;;;;12.57;5.10;;;;;;;13.00;85.67;97925.19;5096436;28;20043;-91
2023/04/01 07:18:14;;;;;;;19.02;6.70;;;;;;;13.14;88.61;97927.13;5097677;28;20039;-93
2023/04/01 07:20:40;;;;;;;16.48;5.20;;;;;;;13.20;85.73;97942.84;5098363;28;20036;-93
2023/04/01 07:23:10;;;;;;;15.60;6.07;;;;;;;13.38;86.42;97941.09;5097756;28;20040;-90
2023/04/01 07:25:39;;;;;;;17.35;5.85;;;;;;;13.52;85.12;97943.03;5093991;28;20056;-93
2023/04/01 07:28:11;;;;;;;14.98;5.70;;;;;;;13.70;83.63;97949.22;5085664;28;20442;-93
2023/04/01 07:30:51;;;;;;;16.73;5.20;;;;;;;13.59;80.05;97948.91;5085368;28;20044;-92
2023/04/01 07:33:22;;;;;;;13.70;4.75;;;;;;;13.74;78.99;97946.28;5083526;28;20071;-92
2023/04/01 07:35:56;;;;;;;15.48;5.00;;;;;;;13.88;79.02;97964.28;5081533;28;20423;-92
2023/04/01 07:38:30;;;;;;;18.90;5.88;;;;;;;13.80;78.07;97950.47;5082039;28;20036;-93
2023/04/01 07:41:05;;;;;;;19.38;4.80;;;;;;;13.73;78.93;97957.09;5083301;28;20065;-93
2023/04/01 07:43:44;;;;;;;14.05;4.40;;;;;;;13.80;76.35;97968.31;5085459;28;20051;-91
2023/04/01 07:46:15;;;;;;;;;;;;;;;13.47;76.52;97977.16;5086248;28;20032;-92
2023/04/01 07:48:49;;;;;;;14.68;3.95;;;;;;;12.95;77.93;97969.91;5087638;28;19947;-94
2023/04/01 07:51:21;;;;;;;15.55;4.25;;;;;;;13.02;78.31;97968.66;5079896;28;20513;-92
2023/04/01 07:53:54;;;;;;;16.83;4.00;;;;;;;13.00;78.80;97969.69;5085900;28;20405;-94
2023/04/01 07:56:26;;;;;;;13.63;4.20;;;;;;;13.28;79.48;97967.38;5080486;28;20036;-92
2023/04/01 07:59:02;;;;;;;14.30;4.38;;;;;;;13.61;80.52;97960.38;5079438;28;20048;-93
2023/04/01 08:01:38;;;;;;;13.52;4.07;;;;;;;14.06;77.54;97956.22;5080094;28;20060;-93
2023/04/01 08:04:21;;;;;;;14.18;4.47;;;;;;;14.23;76.71;97961.50;5079596;28;20044;-93
2023/04/01 08:06:54;;;;;;;16.77;4.72;;;;;;;14.37;75.08;97972.28;5082218;28;20112;-93
2023/04/01 08:09:26;;;;;;;15.85;4.10;;;;;;;14.32;73.01;97971.69;5078921;28;20524;-94
2023/04/01 08:12:07;;;;;;;17.42;4.78;;;;;;;14.37;71.94;97964.25;5087837;28;20046;-93
2023/04/01 08:14:40;;;;;;;13.77;4.05;;;;;;;14.27;73.88;97939.00;5084561;28;20044;-93
2023/04/01 08:17:15;;;;;;;15.05;4.80;;;;;;;14.76;74.10;97970.19;5085239;28;20036;-93
2023/04/01 08:19:56;;;;;;;12.02;3.90;;;;;;;15.01;71.39;97940.19;5074368;28;20098;-92
2023/04/01 08:22:27;;;;;;;14.63;4.45;;;;;;;15.78;67.38;97955.25;5081335;28;20497;-92
2023/04/01 08:24:59;;;;;;;15.52;3.97;;;;;;;15.87;66.65;97931.50;5083170;28;20040;-92
2023/04/01 08:27:35;;;;;;;12.73;3.67;;;;;;;16.17;64.60;97940.31;5101079;28;20166;-91
2023/04/01 08:30:15;;;;;;;13.55;4.00;;;;;;;16.88;65.67;97940.31;5098064;27;20045;-91
2023/04/01 08:32:46;;;;;;;10.98;3.88;;;;;;;16.85;62.20;97914.53;5090998;28;20047;-92
2023/04/01 08:35:23;;;;;;;15.82;3.55;;;;;;;16.39;62.71;97925.53;5095917;28;20040;-92
2023/04/01 08:37:51;;;;;;;16.77;4.03;;;;;;;16.08;64.49;97916.75;5089317;28;20056;-92
2023/04/01 08:40:50;;;;;;;13.10;3.70;;;;;;;15.89;65.02;97934.97;5092217;28;20131;-93
2023/04/01 08:43:31;;;;;;;14.57;5.05;;;;;;;15.87;67.26;97936.88;5100863;28;20035;-93
2023/04/01 08:46:14;;;;;;;13.80;3.65;;;;;;;15.23;65.42;97942.47;5098597;28;20150;-93
2023/04/01 08:49:10;;;;;;;17.38;4.13;;;;;;;15.76;65.66;97972.38;5097880;28;20116;-93
2023/04/01 08:51:59;;;;;;;15.90;4.00;;;;;;;15.86;62.77;97921.75;5093961;28;20048;-92
2023/04/01 08:54:48;;;;;;;14.80;4.32;;;;;;;15.91;62.32;97958.03;5102061;28;20039;-94
2023/04/01 08:57:29;;;;;;;8.30;3.03;;;;;;;16.40;60.02;97972.91;5104568;28;20039;-92
2023/04/01 09:00:25;;;;;;;12.60;3.65;;;;;;;16.81;57.66;97950.59;5106258;28;20039;-91
2023/04/01 09:03:10;;;;;;;13.23;3.90;;;;;;;16.15;60.36;97955.66;5092774;28;20098;-94
2023/04/01 09:05:47;;;;;;;12.93;3.92;;;;;;;16.11;60.68;97954.13;5094782;28;20043;-92
2023/04/01 09:08:28;;;;;;;11.77;3.58;;;;;;;16.59;59.20;97975.25;5101650;27;20058;-93
2023/04/01 09:11:04;;;;;;;14.88;5.18;;;;;;;16.95;56.97;97972.03;5107424;27;20039;-91
2023/04/01 09:13:46;;;;;;;13.68;6.10;;;;;;;17.65;55.30;97957.50;5104180;27;20055;-91
2023/04/01 09:16:35;;;;;;;12.95;4.13;;;;;;;17.53;54.06;97948.44;5103952;28;20046;-91
2023/04/01 09:19:43;;;;;;;13.05;3.70;;;;;;;17.47;54.52;97980.28;5106479;27;20043;-92
2023/04/01 09:22:22;;;;;;;9.70;3.30;;;;;;;16.99;56.78;97957.44;5047198;28;20563;-92
2023/04/01 09:25:06;;;;;;;11.65;3.58;;;;;;;17.14;56.09;97990.47;5045245;28;20048;-93
2023/04/01 09:27:43;;;;;;;11.68;3.30;;;;;;;16.35;56.36;97973.19;5048536;28;20045;-93
2023/04/01 09:30:33;;;;;;;9.05;3.35;;;;;;;16.25;56.84;97957.78;5048279;28;20051;-92
2023/04/01 09:33:24;;;;;;;13.82;3.83;;;;;;;16.27;58.21;97971.94;5046977;28;20052;-91
2023/04/01 09:36:02;;;;;;;10.88;3.30;;;;;;;16.76;58.38;97984.91;5043988;28;20564;-93
2023/04/01 09:38:36;;;;;;;10.85;3.50;;;;;;;16.16;57.37;97968.13;5045423;28;20494;-92
2023/04/01 09:41:15;;;;;;;9.43;3.20;;;;;;;16.08;59.69;97989.19;5048114;28;20041;-91
2023/04/01 09:43:58;;;;;;;20.48;4.05;;;;;;;15.46;59.76;97988.47;5042879;28;20404;-93
2023/04/01 09:46:34;;;;;;;9.38;3.70;;;;;;;14.95;59.05;97986.91;5046750;28;20540;-91
2023/04/01 09:49:33;;;;;;;9.90;3.25;;;;;;;15.36;58.46;97997.03;5048453;28;20064;-92
2023/04/01 09:52:12;;;;;;;13.77;3.40;;;;;;;15.85;58.42;97974.50;5044624;28;20041;-91
2023/04/01 09:54:53;;;;;;;9.00;3.00;;;;;;;17.00;55.96;97982.47;5049994;28;20044;-90
2023/04/01 09:57:52;;;;;;;8.35;2.95;;;;;;;16.82;52.29;97971.13;5090252;28;20086;-91
2023/04/01 10:00:33;;;;;;;;;;;;;;;16.39;52.85;97976.53;5089394;28;20066;-90
2023/04/01 10:03:23;;;;;;;7.03;2.95;;;;;;;16.67;52.43;97948.78;5094585;28;19921;-92
2023/04/01 10:06:25;;;;;;;8.07;2.47;;;;;;;16.53;51.64;97935.41;5087400;28;20044;-90
2023/04/01 10:09:45;;;;;;;10.63;3.08;;;;;;;16.85;52.91;97936.03;5065079;28;20649;-92
2023/04/01 10:12:37;;;;;;;14.70;2.90;;;;;;;16.89;50.65;97936.66;5089202;28;20040;-91
2023/04/01 10:15:29;;;;;;;9.45;2.88;;;;;;;17.18;49.48;97932.03;5091557;28;20068;-93
2023/04/01 10:18:29;;;;;;;9.10;2.90;;;;;;;17.19;51.22;97945.34;5092142;28;20045;-92
2023/04/01 10:21:42;;;;;;;8.35;2.92;;;;;;;17.11;50.91;97949.53;5090680;28;20067;-92
2023/04/01 10:24:33;;;;;;;12.05;3.20;;;;;;;16.98;50.66;97911.88;5068142;28;20045;-91
2023/04/01 10:27:16;;;;;;;8.40;3.33;;;;;;;17.02;50.57;97940.25;5081432;28;20105;-92
2023/04/01 10:30:05;;;;;;;10.02;3.03;;;;;;;16.42;50.37;97910.13;5090332;28;20070;-92
2023/04/01 10:33:00;;;;;;;7.40;3.03;;;;;;;16.61;50.39;97903.53;5088619;28;20039;-91
2023/04/01 10:36:10;;;;;;;7.47;2.55;;;;;;;16.61;47.15;97925.91;5084100;28;20032;-91
2023/04/01 10:39:20;;;;;;;7.22;2.60;;;;;;;16.43;49.03;97911.81;5091085;28;20052;-92
2023/04/01 10:42:24;;;;;;;10.88;2.80;;;;;;;16.54;46.82;97889.66;5021393;28;20042;-91
2023/04/01 10:45:23;;;;;;;20.55;3.22;;;;;;;17.03;48.01;97923.19;5028865;28;20056;-91
2023/04/01 10:48:17;;;;;;;7.18;2.47;;;;;;;16.73;47.47;97891.16;5029199;28;20046;-91
2023/04/01 10:51:16;;;;;;;7.32;3.00;;;;;;;17.34;49.33;97913.91;5063763;28;20052;-91
2023/04/01 10:53:56;;;;;;;10.77;3.20;;;;;;;16.72;46.67;97886.72;5062816;28;20121;-92
2023/04/01 10:56:42;;;;;;;13.70;2.92;;;;;;;16.97;46.46;97876.09;5035471;28;20042;-93
2023/04/01 10:59:39;;;;;;;9.45;2.90;;;;;;;17.06;45.51;97874.63;5028904;28;20038;-92
2023/04/01 11:03:01;;;;;;;8.32;3.42;;;;;;;17.12;46.88;97893.00;5027122;28;20038;-91
2023/04/01 11:06:06;;;;;;;7.50;2.63;;;;;;;17.60;44.34;97895.97;5030052;28;20041;-92
2023/04/01 11:09:19;;;;;;;9.25;2.90;;;;;;;17.29;45.14;97897.25;5033991;28;20044;-93
2023/04/01 11:12:10;;;;;;;12.45;2.85;;;;;;;17.44;45.28;97873.84;5034959;28;20099;-92
2023/04/01 11:15:05;;;;;;;7.35;2.70;;;;;;;17.24;43.83;97892.19;5029182;28;20057;-92
2023/04/01 11:18:22;;;;;;;5.25;2.40;;;;;;;17.18;45.58;97871.09;5067299;28;20047;-92
2023/04/01 11:21:21;;;;;;;8.90;2.67;;;;;;;17.32;46.19;97913.16;5073382;28;20040;-90
2023/04/01 11:24:13;;;;;;;7.75;2.53;;;;;;;16.53;44.60;97900.50;5084922;28;20036;-94
2023/04/01 11:26:52;;;;;;;10.02;2.88;;;;;;;16.59;45.40;97890.25;5106622;28;20054;-93
2023/04/01 11:29:57;;;;;;;7.10;2.53;;;;;;;16.79;44.45;97882.69;5129389;27;20051;-93
2023/04/01 11:32:42;;;;;;;8.75;2.80;;;;;;;16.89;44.61;97878.44;5112618;27;21845;-93
2023/04/01 11:35:32;;;;;;;11.32;2.70;;;;;;;16.87;45.83;97876.81;5113934;27;20092;-93
2023/04/01 11:38:11;;;;;;;11.02;2.70;;;;;;;17.17;46.81;97871.19;5107418;28;20099;-95
2023/04/01 11:40:45;;;;;;;8.63;2.50;;;;;;;17.14;45.05;97866.91;5106596;27;20048;-92
2023/04/01 11:43:18;;;;;;;7.38;3.00;;;;;;;16.97;44.46;97864.50;5105446;28;20036;-91
2023/04/01 11:45:51;;;;;;;9.18;2.50;;;;;;;17.02;44.18;97862.34;5108028;27;20122;-94
2023/04/01 11:48:40;;;;;;;8.23;2.47;;;;;;;17.13;43.00;97842.81;5110848;27;20388;-93
2023/04/01 11:51:29;;;;;;;8.23;2.17;;;;;;;17.16;43.42;97866.81;5111035;28;20039;-92
2023/04/01 11:54:04;;;;;;;9.55;2.33;;;;;;;16.69;42.26;97833.25;5108671;28;20066;-93
2023/04/01 11:56:45;;;;;;;9.57;2.92;;;;;;;17.09;44.00;97878.91;5106938;27;20476;-93
2023/04/01 11:59:47;;;;;;;7.68;2.58;;;;;;;17.20;43.04;97849.53;5112989;27;20076;-92
2023/04/01 12:02:21;;;;;;;7.03;2.60;;;;;;;17.16;43.15;97834.56;5103342;28;20039;-91